sensor_id;sensor_type;location;lat;lon;timestamp;P1;durP1;ratioP1;P2;durP2;ratioP2
5795;SDS011;2924;51.458;7.046;2024-01-30T00:01:25;7.63;;;5.20;;
5795;SDS011;2924;51.458;7.046;2024-01-30T00:03:51;8.63;;;4.90;;
5795;SDS011;2924;51.458;7.046;2024-01-30T00:06:20;8.10;;;4.93;;
5795;SDS011;2924;51.458;7.046;2024-01-30T00:08:48;6.10;;;5.20;;
5795;SDS011;2924;51.458;7.046;2024-01-30T00:11:14;9.73;;;5.97;;
5795;SDS011;2924;51.458;7.046;2024-01-30T00:13:41;10.20;;;5.23;;
5795;SDS011;2924;51.458;7.046;2024-01-30T00:16:07;7.60;;;4.80;;
5795;SDS011;2924;51.458;7.046;2024-01-30T00:18:34;10.13;;;5.43;;
5795;SDS011;2924;51.458;7.046;2024-01-30T00:20:59;10.40;;;6.47;;
5795;SDS011;2924;51.458;7.046;2024-01-30T00:23:25;7.57;;;4.80;;
5795;SDS011;2924;51.458;7.046;2024-01-30T00:25:50;7.43;;;4.63;;
5795;SDS011;2924;51.458;7.046;2024-01-30T00:28:16;8.97;;;5.33;;
5795;SDS011;2924;51.458;7.046;2024-01-30T00:30:42;11.90;;;6.00;;
5795;SDS011;2924;51.458;7.046;2024-01-30T00:33:08;6.83;;;4.60;;
5795;SDS011;2924;51.458;7.046;2024-01-30T00:35:34;5.80;;;4.77;;
5795;SDS011;2924;51.458;7.046;2024-01-30T00:38:00;11.70;;;6.30;;
5795;SDS011;2924;51.458;7.046;2024-01-30T00:40:25;14.70;;;4.43;;
5795;SDS011;2924;51.458;7.046;2024-01-30T00:42:51;6.80;;;5.37;;
5795;SDS011;2924;51.458;7.046;2024-01-30T00:45:17;6.60;;;5.27;;
5795;SDS011;2924;51.458;7.046;2024-01-30T00:47:43;10.03;;;5.30;;
5795;SDS011;2924;51.458;7.046;2024-01-30T00:50:09;5.60;;;4.90;;
5795;SDS011;2924;51.458;7.046;2024-01-30T00:52:35;7.43;;;5.23;;
5795;SDS011;2924;51.458;7.046;2024-01-30T00:55:00;9.27;;;4.70;;
5795;SDS011;2924;51.458;7.046;2024-01-30T00:57:26;10.43;;;5.13;;
5795;SDS011;2924;51.458;7.046;2024-01-30T00:59:52;6.53;;;4.80;;
5795;SDS011;2924;51.458;7.046;2024-01-30T01:02:18;8.57;;;5.23;;
5795;SDS011;2924;51.458;7.046;2024-01-30T01:04:43;6.17;;;5.17;;
5795;SDS011;2924;51.458;7.046;2024-01-30T01:07:09;8.40;;;5.30;;
5795;SDS011;2924;51.458;7.046;2024-01-30T01:09:36;12.20;;;5.60;;
5795;SDS011;2924;51.458;7.046;2024-01-30T01:12:02;6.93;;;5.50;;
5795;SDS011;2924;51.458;7.046;2024-01-30T01:14:28;9.43;;;5.00;;
5795;SDS011;2924;51.458;7.046;2024-01-30T01:16:53;7.30;;;5.40;;
5795;SDS011;2924;51.458;7.046;2024-01-30T01:19:19;8.80;;;5.13;;
5795;SDS011;2924;51.458;7.046;2024-01-30T01:21:45;7.57;;;5.70;;
5795;SDS011;2924;51.458;7.046;2024-01-30T01:24:10;8.13;;;5.47;;
5795;SDS011;2924;51.458;7.046;2024-01-30T01:26:36;14.73;;;5.30;;
5795;SDS011;2924;51.458;7.046;2024-01-30T01:29:01;9.73;;;5.23;;
5795;SDS011;2924;51.458;7.046;2024-01-30T01:31:34;6.60;;;4.70;;
5795;SDS011;2924;51.458;7.046;2024-01-30T01:34:09;7.93;;;4.70;;
5795;SDS011;2924;51.458;7.046;2024-01-30T01:36:35;9.70;;;5.50;;
5795;SDS011;2924;51.458;7.046;2024-01-30T01:39:01;8.50;;;5.70;;
5795;SDS011;2924;51.458;7.046;2024-01-30T01:41:30;9.40;;;5.53;;
5795;SDS011;2924;51.458;7.046;2024-01-30T01:43:57;5.20;;;4.70;;
5795;SDS011;2924;51.458;7.046;2024-01-30T01:46:22;12.33;;;5.17;;
5795;SDS011;2924;51.458;7.046;2024-01-30T01:48:48;13.10;;;5.17;;
5795;SDS011;2924;51.458;7.046;2024-01-30T01:51:14;8.10;;;5.17;;
5795;SDS011;2924;51.458;7.046;2024-01-30T01:53:41;8.10;;;5.23;;
5795;SDS011;2924;51.458;7.046;2024-01-30T01:56:07;9.40;;;5.40;;
5795;SDS011;2924;51.458;7.046;2024-01-30T01:58:33;7.97;;;4.87;;
5795;SDS011;2924;51.458;7.046;2024-01-30T02:00:59;8.53;;;5.73;;
5795;SDS011;2924;51.458;7.046;2024-01-30T02:03:25;8.63;;;6.13;;
5795;SDS011;2924;51.458;7.046;2024-01-30T02:05:51;9.10;;;5.77;;
5795;SDS011;2924;51.458;7.046;2024-01-30T02:08:17;9.73;;;5.13;;
5795;SDS011;2924;51.458;7.046;2024-01-30T02:10:42;7.47;;;5.87;;
5795;SDS011;2924;51.458;7.046;2024-01-30T02:13:08;7.10;;;5.43;;
5795;SDS011;2924;51.458;7.046;2024-01-30T02:15:33;18.07;;;6.10;;
5795;SDS011;2924;51.458;7.046;2024-01-30T02:17:59;7.10;;;5.63;;
5795;SDS011;2924;51.458;7.046;2024-01-30T02:20:24;9.80;;;5.60;;
5795;SDS011;2924;51.458;7.046;2024-01-30T02:22:54;6.53;;;5.30;;
5795;SDS011;2924;51.458;7.046;2024-01-30T02:25:29;13.30;;;5.10;;
5795;SDS011;2924;51.458;7.046;2024-01-30T02:27:59;7.20;;;5.30;;
5795;SDS011;2924;51.458;7.046;2024-01-30T02:30:24;8.37;;;6.00;;
5795;SDS011;2924;51.458;7.046;2024-01-30T02:32:50;8.77;;;5.90;;
5795;SDS011;2924;51.458;7.046;2024-01-30T02:35:15;9.00;;;4.90;;
5795;SDS011;2924;51.458;7.046;2024-01-30T02:37:41;15.23;;;5.40;;
5795;SDS011;2924;51.458;7.046;2024-01-30T02:40:06;7.57;;;5.23;;
5795;SDS011;2924;51.458;7.046;2024-01-30T02:42:32;7.83;;;5.40;;
5795;SDS011;2924;51.458;7.046;2024-01-30T02:44:58;10.77;;;5.23;;
5795;SDS011;2924;51.458;7.046;2024-01-30T02:47:23;9.83;;;5.50;;
5795;SDS011;2924;51.458;7.046;2024-01-30T02:49:49;9.23;;;4.93;;
5795;SDS011;2924;51.458;7.046;2024-01-30T02:52:15;10.40;;;5.73;;
5795;SDS011;2924;51.458;7.046;2024-01-30T02:54:40;9.93;;;5.50;;
5795;SDS011;2924;51.458;7.046;2024-01-30T02:57:06;6.07;;;5.47;;
5795;SDS011;2924;51.458;7.046;2024-01-30T02:59:31;13.93;;;5.40;;
5795;SDS011;2924;51.458;7.046;2024-01-30T03:02:00;10.67;;;5.30;;
5795;SDS011;2924;51.458;7.046;2024-01-30T03:04:26;12.93;;;5.40;;
5795;SDS011;2924;51.458;7.046;2024-01-30T03:06:51;9.03;;;4.90;;
5795;SDS011;2924;51.458;7.046;2024-01-30T03:09:18;7.37;;;5.20;;
5795;SDS011;2924;51.458;7.046;2024-01-30T03:11:43;9.50;;;5.27;;
5795;SDS011;2924;51.458;7.046;2024-01-30T03:14:09;7.27;;;5.27;;
5795;SDS011;2924;51.458;7.046;2024-01-30T03:16:36;11.30;;;5.57;;
5795;SDS011;2924;51.458;7.046;2024-01-30T03:19:02;7.73;;;4.80;;
5795;SDS011;2924;51.458;7.046;2024-01-30T03:21:28;7.03;;;5.13;;
5795;SDS011;2924;51.458;7.046;2024-01-30T03:23:54;6.60;;;4.67;;
5795;SDS011;2924;51.458;7.046;2024-01-30T03:26:20;6.63;;;4.83;;
5795;SDS011;2924;51.458;7.046;2024-01-30T03:28:45;13.93;;;6.20;;
5795;SDS011;2924;51.458;7.046;2024-01-30T03:31:13;6.67;;;5.00;;
5795;SDS011;2924;51.458;7.046;2024-01-30T03:33:40;14.07;;;5.63;;
5795;SDS011;2924;51.458;7.046;2024-01-30T03:36:07;9.53;;;4.70;;
5795;SDS011;2924;51.458;7.046;2024-01-30T03:38:33;11.30;;;4.87;;
5795;SDS011;2924;51.458;7.046;2024-01-30T03:40:59;7.40;;;4.60;;
5795;SDS011;2924;51.458;7.046;2024-01-30T03:43:25;6.50;;;4.40;;
5795;SDS011;2924;51.458;7.046;2024-01-30T03:45:51;5.30;;;4.43;;
5795;SDS011;2924;51.458;7.046;2024-01-30T03:48:16;5.77;;;4.20;;
5795;SDS011;2924;51.458;7.046;2024-01-30T03:50:42;5.80;;;4.47;;
5795;SDS011;2924;51.458;7.046;2024-01-30T03:53:08;7.77;;;4.40;;
5795;SDS011;2924;51.458;7.046;2024-01-30T03:55:34;7.07;;;4.33;;
5795;SDS011;2924;51.458;7.046;2024-01-30T03:57:59;8.20;;;4.70;;
5795;SDS011;2924;51.458;7.046;2024-01-30T04:00:25;5.30;;;4.37;;
5795;SDS011;2924;51.458;7.046;2024-01-30T04:02:51;7.47;;;4.27;;
5795;SDS011;2924;51.458;7.046;2024-01-30T04:05:16;4.50;;;3.90;;
5795;SDS011;2924;51.458;7.046;2024-01-30T04:07:42;9.97;;;3.63;;
5795;SDS011;2924;51.458;7.046;2024-01-30T04:10:08;7.50;;;3.90;;
5795;SDS011;2924;51.458;7.046;2024-01-30T04:12:34;6.50;;;3.33;;
5795;SDS011;2924;51.458;7.046;2024-01-30T04:15:01;7.37;;;3.70;;
5795;SDS011;2924;51.458;7.046;2024-01-30T04:17:27;9.53;;;4.10;;
5795;SDS011;2924;51.458;7.046;2024-01-30T04:19:54;6.30;;;3.47;;
5795;SDS011;2924;51.458;7.046;2024-01-30T04:22:19;6.00;;;3.70;;
5795;SDS011;2924;51.458;7.046;2024-01-30T04:24:45;6.00;;;3.30;;
5795;SDS011;2924;51.458;7.046;2024-01-30T04:27:10;5.93;;;4.03;;
5795;SDS011;2924;51.458;7.046;2024-01-30T04:29:36;6.70;;;3.67;;
5795;SDS011;2924;51.458;7.046;2024-01-30T04:32:05;7.50;;;3.03;;
5795;SDS011;2924;51.458;7.046;2024-01-30T04:34:31;4.50;;;4.13;;
5795;SDS011;2924;51.458;7.046;2024-01-30T04:36:56;6.43;;;4.00;;
5795;SDS011;2924;51.458;7.046;2024-01-30T04:39:22;5.03;;;3.63;;
5795;SDS011;2924;51.458;7.046;2024-01-30T04:41:47;6.20;;;3.30;;
5795;SDS011;2924;51.458;7.046;2024-01-30T04:44:13;6.30;;;3.23;;
5795;SDS011;2924;51.458;7.046;2024-01-30T04:46:39;5.43;;;3.83;;
5795;SDS011;2924;51.458;7.046;2024-01-30T04:49:05;14.23;;;4.77;;
5795;SDS011;2924;51.458;7.046;2024-01-30T04:51:32;11.50;;;4.80;;
5795;SDS011;2924;51.458;7.046;2024-01-30T04:53:58;12.37;;;4.30;;
5795;SDS011;2924;51.458;7.046;2024-01-30T04:56:24;4.07;;;3.70;;
5795;SDS011;2924;51.458;7.046;2024-01-30T04:58:50;8.80;;;4.27;;
5795;SDS011;2924;51.458;7.046;2024-01-30T05:01:15;6.53;;;3.93;;
5795;SDS011;2924;51.458;7.046;2024-01-30T05:03:42;7.73;;;4.57;;
5795;SDS011;2924;51.458;7.046;2024-01-30T05:06:07;7.30;;;3.50;;
5795;SDS011;2924;51.458;7.046;2024-01-30T05:08:33;9.10;;;4.20;;
5795;SDS011;2924;51.458;7.046;2024-01-30T05:11:01;6.03;;;3.70;;
5795;SDS011;2924;51.458;7.046;2024-01-30T05:13:29;15.67;;;3.90;;
5795;SDS011;2924;51.458;7.046;2024-01-30T05:15:55;5.97;;;3.60;;
5795;SDS011;2924;51.458;7.046;2024-01-30T05:18:21;6.80;;;4.63;;
5795;SDS011;2924;51.458;7.046;2024-01-30T05:20:46;11.90;;;4.10;;
5795;SDS011;2924;51.458;7.046;2024-01-30T05:23:12;9.37;;;4.47;;
5795;SDS011;2924;51.458;7.046;2024-01-30T05:25:38;8.83;;;3.97;;
5795;SDS011;2924;51.458;7.046;2024-01-30T05:28:03;4.73;;;4.17;;
5795;SDS011;2924;51.458;7.046;2024-01-30T05:30:29;6.10;;;3.60;;
5795;SDS011;2924;51.458;7.046;2024-01-30T05:32:55;9.00;;;5.70;;
5795;SDS011;2924;51.458;7.046;2024-01-30T05:35:20;6.47;;;4.27;;
5795;SDS011;2924;51.458;7.046;2024-01-30T05:37:47;10.10;;;3.97;;
5795;SDS011;2924;51.458;7.046;2024-01-30T05:40:14;9.03;;;4.10;;
5795;SDS011;2924;51.458;7.046;2024-01-30T05:42:40;8.30;;;4.60;;
5795;SDS011;2924;51.458;7.046;2024-01-30T05:45:06;6.43;;;4.23;;
5795;SDS011;2924;51.458;7.046;2024-01-30T05:47:31;13.27;;;4.57;;
5795;SDS011;2924;51.458;7.046;2024-01-30T05:49:57;9.57;;;3.43;;
5795;SDS011;2924;51.458;7.046;2024-01-30T05:52:22;7.73;;;3.50;;
5795;SDS011;2924;51.458;7.046;2024-01-30T05:54:48;4.50;;;3.17;;
5795;SDS011;2924;51.458;7.046;2024-01-30T05:57:13;5.20;;;3.60;;
5795;SDS011;2924;51.458;7.046;2024-01-30T05:59:39;5.10;;;3.57;;
5795;SDS011;2924;51.458;7.046;2024-01-30T06:02:04;5.00;;;3.53;;
5795;SDS011;2924;51.458;7.046;2024-01-30T06:04:30;10.47;;;4.33;;
5795;SDS011;2924;51.458;7.046;2024-01-30T06:06:55;3.77;;;3.47;;
5795;SDS011;2924;51.458;7.046;2024-01-30T06:09:21;10.40;;;4.03;;
5795;SDS011;2924;51.458;7.046;2024-01-30T06:11:47;6.13;;;3.70;;
5795;SDS011;2924;51.458;7.046;2024-01-30T06:14:12;6.80;;;3.80;;
5795;SDS011;2924;51.458;7.046;2024-01-30T06:16:38;3.37;;;3.07;;
5795;SDS011;2924;51.458;7.046;2024-01-30T06:19:03;4.07;;;3.30;;
5795;SDS011;2924;51.458;7.046;2024-01-30T06:21:29;4.93;;;4.00;;
5795;SDS011;2924;51.458;7.046;2024-01-30T06:23:55;4.47;;;4.07;;
5795;SDS011;2924;51.458;7.046;2024-01-30T06:26:21;11.00;;;3.40;;
5795;SDS011;2924;51.458;7.046;2024-01-30T06:28:46;7.63;;;3.40;;
5795;SDS011;2924;51.458;7.046;2024-01-30T06:31:12;5.10;;;4.00;;
5795;SDS011;2924;51.458;7.046;2024-01-30T06:33:37;7.53;;;4.13;;
5795;SDS011;2924;51.458;7.046;2024-01-30T06:36:03;19.23;;;4.47;;
5795;SDS011;2924;51.458;7.046;2024-01-30T06:38:29;8.10;;;3.80;;
5795;SDS011;2924;51.458;7.046;2024-01-30T06:40:54;5.67;;;4.07;;
5795;SDS011;2924;51.458;7.046;2024-01-30T06:43:20;6.03;;;4.03;;
5795;SDS011;2924;51.458;7.046;2024-01-30T06:45:47;7.43;;;3.87;;
5795;SDS011;2924;51.458;7.046;2024-01-30T06:48:12;4.30;;;3.40;;
5795;SDS011;2924;51.458;7.046;2024-01-30T06:50:38;5.90;;;3.97;;
5795;SDS011;2924;51.458;7.046;2024-01-30T06:53:03;6.63;;;3.83;;
5795;SDS011;2924;51.458;7.046;2024-01-30T06:55:29;6.80;;;3.87;;
5795;SDS011;2924;51.458;7.046;2024-01-30T06:57:54;4.40;;;3.00;;
5795;SDS011;2924;51.458;7.046;2024-01-30T07:00:20;4.80;;;3.27;;
5795;SDS011;2924;51.458;7.046;2024-01-30T07:02:46;9.30;;;4.40;;
5795;SDS011;2924;51.458;7.046;2024-01-30T07:05:12;4.77;;;4.20;;
5795;SDS011;2924;51.458;7.046;2024-01-30T07:07:38;4.87;;;3.47;;
5795;SDS011;2924;51.458;7.046;2024-01-30T07:10:04;4.40;;;3.67;;
5795;SDS011;2924;51.458;7.046;2024-01-30T07:12:30;4.20;;;3.63;;
5795;SDS011;2924;51.458;7.046;2024-01-30T07:14:56;6.23;;;3.93;;
5795;SDS011;2924;51.458;7.046;2024-01-30T07:17:21;8.67;;;3.20;;
5795;SDS011;2924;51.458;7.046;2024-01-30T07:19:47;5.30;;;3.90;;
5795;SDS011;2924;51.458;7.046;2024-01-30T07:22:12;5.60;;;3.90;;
5795;SDS011;2924;51.458;7.046;2024-01-30T07:24:42;4.80;;;4.00;;
5795;SDS011;2924;51.458;7.046;2024-01-30T07:27:09;7.87;;;4.23;;
5795;SDS011;2924;51.458;7.046;2024-01-30T07:29:35;8.17;;;3.73;;
5795;SDS011;2924;51.458;7.046;2024-01-30T07:32:01;4.37;;;3.30;;
5795;SDS011;2924;51.458;7.046;2024-01-30T07:34:27;5.70;;;3.60;;
5795;SDS011;2924;51.458;7.046;2024-01-30T07:36:52;4.60;;;3.63;;
5795;SDS011;2924;51.458;7.046;2024-01-30T07:39:18;6.47;;;3.80;;
5795;SDS011;2924;51.458;7.046;2024-01-30T07:41:43;11.23;;;4.47;;
5795;SDS011;2924;51.458;7.046;2024-01-30T07:44:09;4.50;;;3.80;;
5795;SDS011;2924;51.458;7.046;2024-01-30T07:46:34;3.73;;;3.10;;
5795;SDS011;2924;51.458;7.046;2024-01-30T07:49:00;5.60;;;3.50;;
5795;SDS011;2924;51.458;7.046;2024-01-30T07:51:26;10.73;;;3.43;;
5795;SDS011;2924;51.458;7.046;2024-01-30T07:53:54;5.47;;;3.27;;
5795;SDS011;2924;51.458;7.046;2024-01-30T07:56:20;4.70;;;3.70;;
5795;SDS011;2924;51.458;7.046;2024-01-30T07:58:45;7.17;;;4.00;;
5795;SDS011;2924;51.458;7.046;2024-01-30T08:01:11;5.00;;;3.07;;
5795;SDS011;2924;51.458;7.046;2024-01-30T08:03:37;6.60;;;3.60;;
5795;SDS011;2924;51.458;7.046;2024-01-30T08:06:05;11.27;;;3.63;;
5795;SDS011;2924;51.458;7.046;2024-01-30T08:08:31;13.33;;;4.30;;
5795;SDS011;2924;51.458;7.046;2024-01-30T08:10:57;10.30;;;4.23;;
5795;SDS011;2924;51.458;7.046;2024-01-30T08:13:23;11.07;;;4.00;;
5795;SDS011;2924;51.458;7.046;2024-01-30T08:15:48;4.07;;;3.63;;
5795;SDS011;2924;51.458;7.046;2024-01-30T08:18:14;11.17;;;4.10;;
5795;SDS011;2924;51.458;7.046;2024-01-30T08:20:39;5.53;;;3.70;;
5795;SDS011;2924;51.458;7.046;2024-01-30T08:23:05;11.23;;;3.63;;
5795;SDS011;2924;51.458;7.046;2024-01-30T08:25:30;6.10;;;4.13;;
5795;SDS011;2924;51.458;7.046;2024-01-30T08:27:56;4.30;;;3.70;;
5795;SDS011;2924;51.458;7.046;2024-01-30T08:30:22;10.93;;;4.60;;
5795;SDS011;2924;51.458;7.046;2024-01-30T08:32:47;4.17;;;3.77;;
5795;SDS011;2924;51.458;7.046;2024-01-30T08:35:13;9.43;;;4.00;;
5795;SDS011;2924;51.458;7.046;2024-01-30T08:37:40;5.00;;;3.17;;
5795;SDS011;2924;51.458;7.046;2024-01-30T08:40:07;5.50;;;3.83;;
5795;SDS011;2924;51.458;7.046;2024-01-30T08:42:36;6.33;;;3.63;;
5795;SDS011;2924;51.458;7.046;2024-01-30T08:45:02;8.83;;;4.20;;
5795;SDS011;2924;51.458;7.046;2024-01-30T08:47:29;4.20;;;3.80;;
5795;SDS011;2924;51.458;7.046;2024-01-30T08:49:55;8.93;;;3.70;;
5795;SDS011;2924;51.458;7.046;2024-01-30T08:52:23;5.93;;;4.00;;
5795;SDS011;2924;51.458;7.046;2024-01-30T08:54:48;9.63;;;4.10;;
5795;SDS011;2924;51.458;7.046;2024-01-30T08:57:14;13.03;;;4.23;;
5795;SDS011;2924;51.458;7.046;2024-01-30T08:59:39;8.10;;;3.77;;
5795;SDS011;2924;51.458;7.046;2024-01-30T09:02:05;6.37;;;3.50;;
5795;SDS011;2924;51.458;7.046;2024-01-30T09:04:31;5.10;;;4.57;;
5795;SDS011;2924;51.458;7.046;2024-01-30T09:06:56;6.37;;;4.93;;
5795;SDS011;2924;51.458;7.046;2024-01-30T09:09:22;10.83;;;4.67;;
5795;SDS011;2924;51.458;7.046;2024-01-30T09:11:47;11.37;;;4.60;;
5795;SDS011;2924;51.458;7.046;2024-01-30T09:14:13;8.10;;;4.77;;
5795;SDS011;2924;51.458;7.046;2024-01-30T09:16:39;12.47;;;5.00;;
5795;SDS011;2924;51.458;7.046;2024-01-30T09:19:04;8.23;;;4.43;;
5795;SDS011;2924;51.458;7.046;2024-01-30T09:21:30;7.20;;;4.10;;
5795;SDS011;2924;51.458;7.046;2024-01-30T09:24:01;6.80;;;4.57;;
5795;SDS011;2924;51.458;7.046;2024-01-30T09:26:28;6.37;;;4.07;;
5795;SDS011;2924;51.458;7.046;2024-01-30T09:28:54;5.60;;;4.60;;
5795;SDS011;2924;51.458;7.046;2024-01-30T09:31:20;13.37;;;4.23;;
5795;SDS011;2924;51.458;7.046;2024-01-30T09:33:45;7.00;;;4.33;;
5795;SDS011;2924;51.458;7.046;2024-01-30T09:36:13;5.33;;;3.40;;
5795;SDS011;2924;51.458;7.046;2024-01-30T09:38:40;8.70;;;4.30;;
5795;SDS011;2924;51.458;7.046;2024-01-30T09:41:08;7.40;;;3.43;;
5795;SDS011;2924;51.458;7.046;2024-01-30T09:43:38;5.17;;;3.77;;
5795;SDS011;2924;51.458;7.046;2024-01-30T09:46:05;6.33;;;4.20;;
5795;SDS011;2924;51.458;7.046;2024-01-30T09:48:32;8.10;;;3.90;;
5795;SDS011;2924;51.458;7.046;2024-01-30T09:50:59;13.50;;;5.37;;
5795;SDS011;2924;51.458;7.046;2024-01-30T09:53:24;15.57;;;3.70;;
5795;SDS011;2924;51.458;7.046;2024-01-30T09:55:51;8.30;;;4.83;;
5795;SDS011;2924;51.458;7.046;2024-01-30T09:58:17;4.77;;;3.90;;
5795;SDS011;2924;51.458;7.046;2024-01-30T10:00:42;5.57;;;3.70;;
5795;SDS011;2924;51.458;7.046;2024-01-30T10:03:08;8.70;;;5.13;;
5795;SDS011;2924;51.458;7.046;2024-01-30T10:05:35;6.93;;;4.03;;
5795;SDS011;2924;51.458;7.046;2024-01-30T10:08:05;5.90;;;3.93;;
5795;SDS011;2924;51.458;7.046;2024-01-30T10:10:33;5.13;;;3.80;;
5795;SDS011;2924;51.458;7.046;2024-01-30T10:12:59;7.47;;;3.87;;
5795;SDS011;2924;51.458;7.046;2024-01-30T10:15:25;5.40;;;3.80;;
5795;SDS011;2924;51.458;7.046;2024-01-30T10:17:52;5.30;;;3.73;;
5795;SDS011;2924;51.458;7.046;2024-01-30T10:20:18;6.60;;;4.70;;
5795;SDS011;2924;51.458;7.046;2024-01-30T10:22:44;10.90;;;4.00;;
5795;SDS011;2924;51.458;7.046;2024-01-30T10:25:10;18.67;;;3.90;;
5795;SDS011;2924;51.458;7.046;2024-01-30T10:27:36;5.67;;;3.93;;
5795;SDS011;2924;51.458;7.046;2024-01-30T10:30:04;12.57;;;4.87;;
5795;SDS011;2924;51.458;7.046;2024-01-30T10:32:30;6.77;;;4.17;;
5795;SDS011;2924;51.458;7.046;2024-01-30T10:34:56;4.67;;;3.90;;
5795;SDS011;2924;51.458;7.046;2024-01-30T10:37:21;5.40;;;4.17;;
5795;SDS011;2924;51.458;7.046;2024-01-30T10:39:50;19.53;;;4.80;;
5795;SDS011;2924;51.458;7.046;2024-01-30T10:42:20;8.00;;;3.97;;
5795;SDS011;2924;51.458;7.046;2024-01-30T10:45:00;8.60;;;3.93;;
5795;SDS011;2924;51.458;7.046;2024-01-30T10:47:37;10.90;;;4.07;;
5795;SDS011;2924;51.458;7.046;2024-01-30T10:50:05;6.63;;;3.80;;
5795;SDS011;2924;51.458;7.046;2024-01-30T10:52:33;11.10;;;4.67;;
5795;SDS011;2924;51.458;7.046;2024-01-30T10:54:59;6.50;;;3.83;;
5795;SDS011;2924;51.458;7.046;2024-01-30T10:57:26;9.67;;;4.73;;
5795;SDS011;2924;51.458;7.046;2024-01-30T11:00:02;5.77;;;3.70;;
5795;SDS011;2924;51.458;7.046;2024-01-30T11:02:44;9.23;;;4.87;;
5795;SDS011;2924;51.458;7.046;2024-01-30T11:05:11;9.20;;;4.00;;
5795;SDS011;2924;51.458;7.046;2024-01-30T11:07:38;10.17;;;4.50;;
5795;SDS011;2924;51.458;7.046;2024-01-30T11:10:07;6.93;;;4.10;;
5795;SDS011;2924;51.458;7.046;2024-01-30T11:12:38;5.60;;;3.50;;
5795;SDS011;2924;51.458;7.046;2024-01-30T11:15:09;7.20;;;4.33;;
5795;SDS011;2924;51.458;7.046;2024-01-30T11:20:09;7.63;;;3.87;;
5795;SDS011;2924;51.458;7.046;2024-01-30T11:22:45;5.73;;;4.10;;
5795;SDS011;2924;51.458;7.046;2024-01-30T11:25:14;6.93;;;4.27;;
5795;SDS011;2924;51.458;7.046;2024-01-30T11:27:42;11.67;;;4.10;;
5795;SDS011;2924;51.458;7.046;2024-01-30T11:30:08;8.47;;;4.57;;
5795;SDS011;2924;51.458;7.046;2024-01-30T11:32:34;8.70;;;5.00;;
5795;SDS011;2924;51.458;7.046;2024-01-30T11:35:02;9.47;;;4.30;;
5795;SDS011;2924;51.458;7.046;2024-01-30T11:37:30;9.63;;;4.43;;
5795;SDS011;2924;51.458;7.046;2024-01-30T11:39:56;7.33;;;4.20;;
5795;SDS011;2924;51.458;7.046;2024-01-30T11:42:23;8.93;;;4.77;;
5795;SDS011;2924;51.458;7.046;2024-01-30T11:44:52;17.60;;;6.40;;
5795;SDS011;2924;51.458;7.046;2024-01-30T11:47:18;7.43;;;4.00;;
5795;SDS011;2924;51.458;7.046;2024-01-30T11:49:43;11.13;;;5.00;;
5795;SDS011;2924;51.458;7.046;2024-01-30T11:52:09;9.60;;;4.93;;
5795;SDS011;2924;51.458;7.046;2024-01-30T11:54:35;15.43;;;4.50;;
5795;SDS011;2924;51.458;7.046;2024-01-30T11:57:04;5.50;;;4.53;;
5795;SDS011;2924;51.458;7.046;2024-01-30T11:59:30;7.30;;;4.67;;
5795;SDS011;2924;51.458;7.046;2024-01-30T12:01:55;15.77;;;4.90;;
5795;SDS011;2924;51.458;7.046;2024-01-30T12:04:21;7.07;;;5.03;;
5795;SDS011;2924;51.458;7.046;2024-01-30T12:06:50;9.80;;;5.20;;
5795;SDS011;2924;51.458;7.046;2024-01-30T12:09:16;16.97;;;5.27;;
5795;SDS011;2924;51.458;7.046;2024-01-30T12:11:45;9.90;;;4.10;;
5795;SDS011;2924;51.458;7.046;2024-01-30T12:14:11;10.63;;;4.53;;
5795;SDS011;2924;51.458;7.046;2024-01-30T12:16:37;15.17;;;5.50;;
5795;SDS011;2924;51.458;7.046;2024-01-30T12:19:04;14.00;;;5.33;;
5795;SDS011;2924;51.458;7.046;2024-01-30T12:21:30;9.70;;;5.30;;
5795;SDS011;2924;51.458;7.046;2024-01-30T12:23:59;13.33;;;4.60;;
5795;SDS011;2924;51.458;7.046;2024-01-30T12:26:25;14.60;;;5.90;;
5795;SDS011;2924;51.458;7.046;2024-01-30T12:28:53;7.63;;;4.70;;
5795;SDS011;2924;51.458;7.046;2024-01-30T12:31:27;13.90;;;5.53;;
5795;SDS011;2924;51.458;7.046;2024-01-30T12:33:53;14.33;;;6.40;;
5795;SDS011;2924;51.458;7.046;2024-01-30T12:36:20;10.17;;;5.00;;
5795;SDS011;2924;51.458;7.046;2024-01-30T12:38:47;13.23;;;4.73;;
5795;SDS011;2924;51.458;7.046;2024-01-30T12:41:13;11.00;;;5.23;;
5795;SDS011;2924;51.458;7.046;2024-01-30T12:43:38;15.27;;;5.53;;
5795;SDS011;2924;51.458;7.046;2024-01-30T12:46:04;17.13;;;5.50;;
5795;SDS011;2924;51.458;7.046;2024-01-30T12:48:30;13.33;;;5.33;;
5795;SDS011;2924;51.458;7.046;2024-01-30T12:50:56;6.33;;;4.80;;
5795;SDS011;2924;51.458;7.046;2024-01-30T12:53:22;15.27;;;5.80;;
5795;SDS011;2924;51.458;7.046;2024-01-30T12:55:47;9.07;;;5.00;;
5795;SDS011;2924;51.458;7.046;2024-01-30T12:58:14;13.73;;;4.70;;
5795;SDS011;2924;51.458;7.046;2024-01-30T13:00:40;10.70;;;5.20;;
5795;SDS011;2924;51.458;7.046;2024-01-30T13:03:08;11.17;;;5.30;;
5795;SDS011;2924;51.458;7.046;2024-01-30T13:05:34;13.37;;;5.00;;
5795;SDS011;2924;51.458;7.046;2024-01-30T13:08:00;10.10;;;5.33;;
5795;SDS011;2924;51.458;7.046;2024-01-30T13:10:26;10.70;;;5.23;;
5795;SDS011;2924;51.458;7.046;2024-01-30T13:12:52;14.10;;;5.37;;
5795;SDS011;2924;51.458;7.046;2024-01-30T13:15:18;11.23;;;5.00;;
5795;SDS011;2924;51.458;7.046;2024-01-30T13:17:43;24.37;;;5.50;;
5795;SDS011;2924;51.458;7.046;2024-01-30T13:20:12;10.73;;;6.13;;
5795;SDS011;2924;51.458;7.046;2024-01-30T13:22:41;8.07;;;5.13;;
5795;SDS011;2924;51.458;7.046;2024-01-30T13:25:08;12.83;;;5.40;;
5795;SDS011;2924;51.458;7.046;2024-01-30T13:27:34;11.63;;;4.90;;
5795;SDS011;2924;51.458;7.046;2024-01-30T13:30:00;13.97;;;6.47;;
5795;SDS011;2924;51.458;7.046;2024-01-30T13:32:25;12.50;;;6.33;;
5795;SDS011;2924;51.458;7.046;2024-01-30T13:34:51;11.87;;;6.40;;
5795;SDS011;2924;51.458;7.046;2024-01-30T13:37:17;18.13;;;6.30;;
5795;SDS011;2924;51.458;7.046;2024-01-30T13:39:43;12.27;;;6.20;;
5795;SDS011;2924;51.458;7.046;2024-01-30T13:42:08;12.97;;;6.20;;
5795;SDS011;2924;51.458;7.046;2024-01-30T13:44:35;9.83;;;6.13;;
5795;SDS011;2924;51.458;7.046;2024-01-30T13:47:01;16.00;;;6.23;;
5795;SDS011;2924;51.458;7.046;2024-01-30T13:49:27;18.17;;;6.13;;
5795;SDS011;2924;51.458;7.046;2024-01-30T13:51:52;12.37;;;6.23;;
5795;SDS011;2924;51.458;7.046;2024-01-30T13:54:18;14.67;;;5.63;;
5795;SDS011;2924;51.458;7.046;2024-01-30T13:56:43;8.40;;;6.20;;
5795;SDS011;2924;51.458;7.046;2024-01-30T13:59:09;14.80;;;6.30;;
5795;SDS011;2924;51.458;7.046;2024-01-30T14:01:34;14.53;;;5.80;;
5795;SDS011;2924;51.458;7.046;2024-01-30T14:04:00;11.37;;;6.27;;
5795;SDS011;2924;51.458;7.046;2024-01-30T14:06:26;10.40;;;5.80;;
5795;SDS011;2924;51.458;7.046;2024-01-30T14:08:51;22.10;;;6.27;;
5795;SDS011;2924;51.458;7.046;2024-01-30T14:11:17;17.63;;;6.87;;
5795;SDS011;2924;51.458;7.046;2024-01-30T14:13:42;13.13;;;6.30;;
5795;SDS011;2924;51.458;7.046;2024-01-30T14:16:08;10.30;;;5.90;;
5795;SDS011;2924;51.458;7.046;2024-01-30T14:18:34;9.70;;;5.73;;
5795;SDS011;2924;51.458;7.046;2024-01-30T14:21:00;11.70;;;5.57;;
5795;SDS011;2924;51.458;7.046;2024-01-30T14:23:25;14.50;;;5.40;;
5795;SDS011;2924;51.458;7.046;2024-01-30T14:25:51;12.20;;;5.03;;
5795;SDS011;2924;51.458;7.046;2024-01-30T14:28:16;11.80;;;6.40;;
5795;SDS011;2924;51.458;7.046;2024-01-30T14:30:42;9.83;;;5.37;;
5795;SDS011;2924;51.458;7.046;2024-01-30T14:33:07;8.77;;;5.27;;
5795;SDS011;2924;51.458;7.046;2024-01-30T14:35:33;6.10;;;5.50;;
5795;SDS011;2924;51.458;7.046;2024-01-30T14:37:59;12.83;;;6.13;;
5795;SDS011;2924;51.458;7.046;2024-01-30T14:40:24;5.50;;;4.90;;
5795;SDS011;2924;51.458;7.046;2024-01-30T14:42:50;8.37;;;6.27;;
5795;SDS011;2924;51.458;7.046;2024-01-30T14:45:15;13.23;;;6.63;;
5795;SDS011;2924;51.458;7.046;2024-01-30T14:47:41;10.67;;;5.57;;
5795;SDS011;2924;51.458;7.046;2024-01-30T14:50:07;6.73;;;5.90;;
5795;SDS011;2924;51.458;7.046;2024-01-30T14:52:33;17.03;;;5.63;;
5795;SDS011;2924;51.458;7.046;2024-01-30T14:54:59;10.10;;;6.17;;
5795;SDS011;2924;51.458;7.046;2024-01-30T14:57:25;10.60;;;5.43;;
5795;SDS011;2924;51.458;7.046;2024-01-30T14:59:50;14.03;;;7.20;;
5795;SDS011;2924;51.458;7.046;2024-01-30T15:02:16;12.83;;;6.13;;
5795;SDS011;2924;51.458;7.046;2024-01-30T15:04:42;16.03;;;6.23;;
5795;SDS011;2924;51.458;7.046;2024-01-30T15:07:07;14.30;;;6.67;;